Virgie Cenac — WDC2765 — position and weather

sailwx.info

Track history (hours):
 
Tides and Currents Weather Stations Pressure Air Temp Water Temp Dewpoint Dewpoint Depression Visibility Wind Speed Wind Dir Waves Ship Positions

Virgie Cenac

Owner: Cenac Marine Transportation, Inc., Houma, LA. More information available from US FCC via Universal Licensing System and Coast Guard Vessel Documentation Center.

Last reported at 2018-May-24 06:00 UTC. Time now 2018-May-24 06:26 UTC.
Position N 30°06' W 093°19'.

Length 18 m; draft 3 m.

Type: Towing. MMSI: 366997430.

Date/timePositionNaut miles runAvg speedWind from/ knotsBaromVisibWave heightAir tempDewpointWater temp
2018-May-24 06:00N 30°06' W 093°19'0 0.0
2018-May-24 05:30N 30°06' W 093°19'0 0.0
2018-May-24 05:00N 30°06' W 093°19'0 0.0
2018-May-24 04:30N 30°06' W 093°19'0 0.0
2018-May-24 04:00N 30°06' W 093°19'0 0.0
2018-May-24 03:30N 30°06' W 093°19'0 0.0
2018-May-24 03:00N 30°06' W 093°19'0 0.0
2018-May-24 02:30N 30°06' W 093°19'0 0.0
2018-May-24 02:00N 30°06' W 093°19'0 0.0
2018-May-24 01:30N 30°06' W 093°19'0 0.0
2018-May-24 01:00N 30°06' W 093°19'0 0.0
2018-May-24 00:30N 30°06' W 093°19'0 0.0
2018-May-24 00:00N 30°06' W 093°19'0 0.0
2018-May-23 23:30N 30°06' W 093°19'0 0.0
2018-May-23 23:00N 30°06' W 093°19'0 0.0
2018-May-23 22:30N 30°06' W 093°19'0 0.0
2018-May-23 22:00N 30°06' W 093°19'0 0.0
2018-May-23 21:30N 30°06' W 093°19'0 0.0
2018-May-23 21:00N 30°06' W 093°19'0 0.0
2018-May-23 20:30N 30°06' W 093°19'0 0.0
2018-May-23 20:00N 30°06' W 093°19'0 0.0
2018-May-23 19:30N 30°06' W 093°19'0 0.3
2018-May-23 19:00N 30°06' W 093°19'3 6.7
2018-May-23 18:30N 30°04' W 093°21'1 2.7
2018-May-23 18:00N 30°04' W 093°23'3 7.0
2018-May-23 17:30N 30°04' W 093°27'13 7.1
2018-May-23 15:38N 30°03' W 093°42'1 6.3
2018-May-23 15:30N 30°03' W 093°43'3 5.7
2018-May-23 15:00N 30°01' W 093°45'3 6.0
2018-May-23 14:30N 29°59' W 093°48'3 6.2
2018-May-23 14:00N 29°58' W 093°51'3 6.6
2018-May-23 13:30N 29°55' W 093°53'3 6.0
2018-May-23 13:00N 29°53' W 093°55'3 6.7
2018-May-23 12:30N 29°50' W 093°57'2 3.6
2018-May-23 12:00N 29°49' W 093°59'0 0.0
2018-May-23 11:30N 29°49' W 093°59'0 0.0
2018-May-23 11:00N 29°49' W 093°59'0 0.1
2018-May-23 10:30N 29°49' W 093°59'0 0.0
2018-May-23 09:59N 29°49' W 093°59'1 1.2
2018-May-23 09:30N 29°49' W 093°60'3 6.9
2018-May-23 09:00N 29°46' W 094°02'3 6.6
2018-May-23 08:30N 29°44' W 094°05'3 6.7
2018-May-23 08:00N 29°42' W 094°08'3 6.0
2018-May-23 07:30N 29°41' W 094°12'38 5.3
2018-May-23 00:19N 29°32' W 094°54'2 7.5
2018-May-23 00:00N 29°34' W 094°55'7 7.2
2018-May-22 23:03N 29°40' W 094°59'1 7.6
2018-May-22 22:57N 29°41' W 094°59'3 0.1
2018-May-21 04:56N 29°42' W 095°01'26 6.6
2018-May-21 00:58N 29°19' W 094°47'1 0.5
2018-May-20 22:24N 29°19' W 094°48'0 0.0
2018-May-20 22:00N 29°19' W 094°48'0 0.0
2018-May-20 21:30N 29°19' W 094°48'0 0.0
2018-May-20 21:00N 29°19' W 094°48'0 0.0
2018-May-20 20:29N 29°19' W 094°48'0 0.0
2018-May-20 20:00N 29°19' W 094°48'0 0.0
2018-May-20 19:16N 29°19' W 094°48'0 0.0
2018-May-20 18:28N 29°19' W 094°48'0 0.0
2018-May-20 17:58N 29°19' W 094°48'0 0.0
2018-May-20 17:30N 29°19' W 094°48'33 1.1
2018-May-19 12:34N 29°38' W 094°18'1 6.9
2018-May-19 12:22N 29°39' W 094°17'3 7.0
2018-May-19 11:59N 29°40' W 094°14'4 7.2
2018-May-19 11:27N 29°41' W 094°10'3 7.1
2018-May-19 11:00N 29°43' W 094°07'4 7.2
2018-May-19 10:30N 29°45' W 094°04'3 4.8
2018-May-19 09:57N 29°47' W 094°01'4 9.2
2018-May-19 09:28N 29°50' W 093°57'3 7.2
2018-May-19 09:00N 29°53' W 093°55'4 7.4
2018-May-19 08:30N 29°55' W 093°53'4 7.1
2018-May-19 08:00N 29°58' W 093°50'3 7.0
2018-May-19 07:30N 29°60' W 093°47'3 6.7
2018-May-19 06:59N 30°02' W 093°44'12 6.4
2018-May-19 05:02N 30°04' W 093°30'1 6.4
2018-May-19 04:55N 30°04' W 093°29'3 6.3
2018-May-19 04:30N 30°04' W 093°26'3 6.4
2018-May-19 04:00N 30°04' W 093°22'3 5.3
2018-May-19 03:30N 30°05' W 093°20'2 4.0
2018-May-19 03:00N 30°05' W 093°18'1 2.2
2018-May-19 02:30N 30°05' W 093°17'3 5.9
2018-May-19 02:00N 30°02' W 093°15'3 6.3
2018-May-19 01:30N 29°59' W 093°13'127 5.1
2018-May-18 00:29N 29°32' W 090°50'3 6.1
2018-May-18 00:00N 29°32' W 090°47'2 4.2
2018-May-17 23:30N 29°34' W 090°45'2 4.1
2018-May-17 23:00N 29°34' W 090°43'0 0.7
2018-May-17 22:30N 29°33' W 090°42'0 0.1
2018-May-17 21:57N 29°33' W 090°42'1 1.8
2018-May-17 21:30N 29°33' W 090°42'0 0.0
2018-May-17 21:00N 29°33' W 090°42'0 0.0
2018-May-17 20:30N 29°33' W 090°42'0 0.0
2018-May-17 20:00N 29°33' W 090°42'0 0.0
2018-May-17 19:30N 29°33' W 090°42'0 0.0
2018-May-17 19:00N 29°33' W 090°42'0 0.0
2018-May-17 18:29N 29°33' W 090°42'0 0.0
2018-May-17 18:00N 29°33' W 090°42'0 0.0
2018-May-17 17:30N 29°33' W 090°42'0 0.0
2018-May-17 17:00N 29°33' W 090°42'0 0.0
2018-May-17 16:30N 29°33' W 090°42'0 0.0
2018-May-17 16:00N 29°33' W 090°42'0 0.5
2018-May-17 15:30N 29°33' W 090°42'0 0.3
2018-May-17 15:00N 29°33' W 090°42'0 0.2
2018-May-17 14:30N 29°33' W 090°42'0 0.7
2018-May-17 14:00N 29°33' W 090°42'2 3.4
2018-May-17 13:30N 29°34' W 090°43'0 0.0
2018-May-17 13:00N 29°34' W 090°43'0 0.0
2018-May-17 12:30N 29°34' W 090°43'2 4.7
2018-May-17 12:00N 29°33' W 090°45'4 0.4
2018-May-17 00:50N 29°32' W 090°50'3 7.4
2018-May-17 00:28N 29°32' W 090°47'3 6.4
2018-May-17 00:00N 29°34' W 090°44'1 2.6
2018-May-16 23:30N 29°34' W 090°43'1 1.1
2018-May-16 23:00N 29°34' W 090°42'0 0.4
2018-May-16 22:30N 29°34' W 090°42'0 0.4
2018-May-16 22:00N 29°33' W 090°42'0 0.9
2018-May-16 21:30N 29°34' W 090°42'0 0.1
2018-May-16 20:59N 29°34' W 090°42'1 1.1
2018-May-16 20:30N 29°34' W 090°43'0 0.0
2018-May-16 20:00N 29°34' W 090°43'0 0.0
2018-May-16 19:30N 29°34' W 090°43'0 0.0
2018-May-16 19:00N 29°34' W 090°43'0 0.0
2018-May-16 18:30N 29°34' W 090°43'0 0.0
2018-May-16 18:00N 29°34' W 090°43'0 0.0
2018-May-16 17:30N 29°34' W 090°43'0 0.0
2018-May-16 17:00N 29°34' W 090°43'0 0.0
2018-May-16 16:30N 29°34' W 090°43'0 0.0
2018-May-16 16:00N 29°34' W 090°43'0 0.0
2018-May-16 15:30N 29°34' W 090°43'0 0.0
2018-May-16 15:00N 29°34' W 090°43'0 0.0
2018-May-16 14:30N 29°34' W 090°43'0 0.0
2018-May-16 14:00N 29°34' W 090°43'0 0.8
2018-May-16 13:30N 29°34' W 090°43'0 0.1
2018-May-16 13:00N 29°34' W 090°43'0 0.0
2018-May-16 12:30N 29°34' W 090°43'0 0.0
2018-May-16 12:00N 29°34' W 090°43'0 0.9
2018-May-16 11:30N 29°35' W 090°43'2 4.5
2018-May-16 11:00N 29°37' W 090°42'2 2.5
2018-May-16 10:06N 29°36' W 090°40'0 0.1
2018-May-16 09:58N 29°36' W 090°40'0 0.0
2018-May-16 09:29N 29°36' W 090°40'0 0.0
2018-May-16 09:00N 29°36' W 090°40'0 0.0
2018-May-16 08:30N 29°36' W 090°40'3 5.3
2018-May-16 08:00N 29°35' W 090°37'5 0.2
2018-May-15 08:08N 29°34' W 090°31'1 8.4
2018-May-15 08:00N 29°34' W 090°33'4 7.6
2018-May-15 07:30N 29°35' W 090°37'3 5.5
2018-May-15 07:00N 29°36' W 090°40'2 4.4
2018-May-15 06:30N 29°37' W 090°42'2 4.6
2018-May-15 06:00N 29°35' W 090°43'2 4.8
2018-May-15 05:30N 29°32' W 090°42'3 5.1
2018-May-15 05:00N 29°30' W 090°43'  
Track history (hours):
 
Tides and Currents Weather Stations Pressure Air Temp Water Temp Dewpoint Dewpoint Depression Visibility Wind Speed Wind Dir Waves Ship Positions

Virgie Cenac

Owner: Cenac Marine Transportation, Inc., Houma, LA. More information available from US FCC via Universal Licensing System and Coast Guard Vessel Documentation Center.

Last reported at 2018-May-24 06:00 UTC. Time now 2018-May-24 06:26 UTC.
Position N 30°06' W 093°19'.

Length 18 m; draft 3 m.

Type: Towing. MMSI: 366997430.

Date/timePositionNaut miles runAvg speedWind from/ knotsBaromVisibWave heightAir tempDewpointWater temp
2018-May-24 06:00N 30°06' W 093°19'0 0.0
2018-May-24 05:30N 30°06' W 093°19'0 0.0
2018-May-24 05:00N 30°06' W 093°19'0 0.0
2018-May-24 04:30N 30°06' W 093°19'0 0.0
2018-May-24 04:00N 30°06' W 093°19'0 0.0
2018-May-24 03:30N 30°06' W 093°19'0 0.0
2018-May-24 03:00N 30°06' W 093°19'0 0.0
2018-May-24 02:30N 30°06' W 093°19'0 0.0
2018-May-24 02:00N 30°06' W 093°19'0 0.0
2018-May-24 01:30N 30°06' W 093°19'0 0.0
2018-May-24 01:00N 30°06' W 093°19'0 0.0
2018-May-24 00:30N 30°06' W 093°19'0 0.0
2018-May-24 00:00N 30°06' W 093°19'0 0.0
2018-May-23 23:30N 30°06' W 093°19'0 0.0
2018-May-23 23:00N 30°06' W 093°19'0 0.0
2018-May-23 22:30N 30°06' W 093°19'0 0.0
2018-May-23 22:00N 30°06' W 093°19'0 0.0
2018-May-23 21:30N 30°06' W 093°19'0 0.0
2018-May-23 21:00N 30°06' W 093°19'0 0.0
2018-May-23 20:30N 30°06' W 093°19'0 0.0
2018-May-23 20:00N 30°06' W 093°19'0 0.0
2018-May-23 19:30N 30°06' W 093°19'0 0.3
2018-May-23 19:00N 30°06' W 093°19'3 6.7
2018-May-23 18:30N 30°04' W 093°21'1 2.7
2018-May-23 18:00N 30°04' W 093°23'3 7.0
2018-May-23 17:30N 30°04' W 093°27'13 7.1
2018-May-23 15:38N 30°03' W 093°42'1 6.3
2018-May-23 15:30N 30°03' W 093°43'3 5.7
2018-May-23 15:00N 30°01' W 093°45'3 6.0
2018-May-23 14:30N 29°59' W 093°48'3 6.2
2018-May-23 14:00N 29°58' W 093°51'3 6.6
2018-May-23 13:30N 29°55' W 093°53'3 6.0
2018-May-23 13:00N 29°53' W 093°55'3 6.7
2018-May-23 12:30N 29°50' W 093°57'2 3.6
2018-May-23 12:00N 29°49' W 093°59'0 0.0
2018-May-23 11:30N 29°49' W 093°59'0 0.0
2018-May-23 11:00N 29°49' W 093°59'0 0.1
2018-May-23 10:30N 29°49' W 093°59'0 0.0
2018-May-23 09:59N 29°49' W 093°59'1 1.2
2018-May-23 09:30N 29°49' W 093°60'3 6.9
2018-May-23 09:00N 29°46' W 094°02'3 6.6
2018-May-23 08:30N 29°44' W 094°05'3 6.7
2018-May-23 08:00N 29°42' W 094°08'3 6.0
2018-May-23 07:30N 29°41' W 094°12'38 5.3
2018-May-23 00:19N 29°32' W 094°54'2 7.5
2018-May-23 00:00N 29°34' W 094°55'7 7.2
2018-May-22 23:03N 29°40' W 094°59'1 7.6
2018-May-22 22:57N 29°41' W 094°59'3 0.1
2018-May-21 04:56N 29°42' W 095°01'26 6.6
2018-May-21 00:58N 29°19' W 094°47'1 0.5
2018-May-20 22:24N 29°19' W 094°48'0 0.0
2018-May-20 22:00N 29°19' W 094°48'0 0.0
2018-May-20 21:30N 29°19' W 094°48'0 0.0
2018-May-20 21:00N 29°19' W 094°48'0 0.0
2018-May-20 20:29N 29°19' W 094°48'0 0.0
2018-May-20 20:00N 29°19' W 094°48'0 0.0
2018-May-20 19:16N 29°19' W 094°48'0 0.0
2018-May-20 18:28N 29°19' W 094°48'0 0.0
2018-May-20 17:58N 29°19' W 094°48'0 0.0
2018-May-20 17:30N 29°19' W 094°48'33 1.1
2018-May-19 12:34N 29°38' W 094°18'1 6.9
2018-May-19 12:22N 29°39' W 094°17'3 7.0
2018-May-19 11:59N 29°40' W 094°14'4 7.2
2018-May-19 11:27N 29°41' W 094°10'3 7.1
2018-May-19 11:00N 29°43' W 094°07'4 7.2
2018-May-19 10:30N 29°45' W 094°04'3 4.8
2018-May-19 09:57N 29°47' W 094°01'4 9.2
2018-May-19 09:28N 29°50' W 093°57'3 7.2
2018-May-19 09:00N 29°53' W 093°55'4 7.4
2018-May-19 08:30N 29°55' W 093°53'4 7.1
2018-May-19 08:00N 29°58' W 093°50'3 7.0
2018-May-19 07:30N 29°60' W 093°47'3 6.7
2018-May-19 06:59N 30°02' W 093°44'12 6.4
2018-May-19 05:02N 30°04' W 093°30'1 6.4
2018-May-19 04:55N 30°04' W 093°29'3 6.3
2018-May-19 04:30N 30°04' W 093°26'3 6.4
2018-May-19 04:00N 30°04' W 093°22'3 5.3
2018-May-19 03:30N 30°05' W 093°20'2 4.0
2018-May-19 03:00N 30°05' W 093°18'1 2.2
2018-May-19 02:30N 30°05' W 093°17'3 5.9
2018-May-19 02:00N 30°02' W 093°15'3 6.3
2018-May-19 01:30N 29°59' W 093°13'127 5.1
2018-May-18 00:29N 29°32' W 090°50'3 6.1
2018-May-18 00:00N 29°32' W 090°47'2 4.2
2018-May-17 23:30N 29°34' W 090°45'2 4.1
2018-May-17 23:00N 29°34' W 090°43'0 0.7
2018-May-17 22:30N 29°33' W 090°42'0 0.1
2018-May-17 21:57N 29°33' W 090°42'1 1.8
2018-May-17 21:30N 29°33' W 090°42'0 0.0
2018-May-17 21:00N 29°33' W 090°42'0 0.0
2018-May-17 20:30N 29°33' W 090°42'0 0.0
2018-May-17 20:00N 29°33' W 090°42'0 0.0
2018-May-17 19:30N 29°33' W 090°42'0 0.0
2018-May-17 19:00N 29°33' W 090°42'0 0.0
2018-May-17 18:29N 29°33' W 090°42'0 0.0
2018-May-17 18:00N 29°33' W 090°42'0 0.0
2018-May-17 17:30N 29°33' W 090°42'0 0.0
2018-May-17 17:00N 29°33' W 090°42'0 0.0
2018-May-17 16:30N 29°33' W 090°42'0 0.0
2018-May-17 16:00N 29°33' W 090°42'0 0.5
2018-May-17 15:30N 29°33' W 090°42'0 0.3
2018-May-17 15:00N 29°33' W 090°42'0 0.2
2018-May-17 14:30N 29°33' W 090°42'0 0.7
2018-May-17 14:00N 29°33' W 090°42'2 3.4
2018-May-17 13:30N 29°34' W 090°43'0 0.0
2018-May-17 13:00N 29°34' W 090°43'0 0.0
2018-May-17 12:30N 29°34' W 090°43'2 4.7
2018-May-17 12:00N 29°33' W 090°45'4 0.4
2018-May-17 00:50N 29°32' W 090°50'3 7.4
2018-May-17 00:28N 29°32' W 090°47'3 6.4
2018-May-17 00:00N 29°34' W 090°44'1 2.6
2018-May-16 23:30N 29°34' W 090°43'1 1.1
2018-May-16 23:00N 29°34' W 090°42'0 0.4
2018-May-16 22:30N 29°34' W 090°42'0 0.4
2018-May-16 22:00N 29°33' W 090°42'0 0.9
2018-May-16 21:30N 29°34' W 090°42'0 0.1
2018-May-16 20:59N 29°34' W 090°42'1 1.1
2018-May-16 20:30N 29°34' W 090°43'0 0.0
2018-May-16 20:00N 29°34' W 090°43'0 0.0
2018-May-16 19:30N 29°34' W 090°43'0 0.0
2018-May-16 19:00N 29°34' W 090°43'0 0.0
2018-May-16 18:30N 29°34' W 090°43'0 0.0
2018-May-16 18:00N 29°34' W 090°43'0 0.0
2018-May-16 17:30N 29°34' W 090°43'0 0.0
2018-May-16 17:00N 29°34' W 090°43'0 0.0
2018-May-16 16:30N 29°34' W 090°43'0 0.0
2018-May-16 16:00N 29°34' W 090°43'0 0.0
2018-May-16 15:30N 29°34' W 090°43'0 0.0
2018-May-16 15:00N 29°34' W 090°43'0 0.0
2018-May-16 14:30N 29°34' W 090°43'0 0.0
2018-May-16 14:00N 29°34' W 090°43'0 0.8
2018-May-16 13:30N 29°34' W 090°43'0 0.1
2018-May-16 13:00N 29°34' W 090°43'0 0.0
2018-May-16 12:30N 29°34' W 090°43'0 0.0
2018-May-16 12:00N 29°34' W 090°43'0 0.9
2018-May-16 11:30N 29°35' W 090°43'2 4.5
2018-May-16 11:00N 29°37' W 090°42'2 2.5
2018-May-16 10:06N 29°36' W 090°40'0 0.1
2018-May-16 09:58N 29°36' W 090°40'0 0.0
2018-May-16 09:29N 29°36' W 090°40'0 0.0
2018-May-16 09:00N 29°36' W 090°40'0 0.0
2018-May-16 08:30N 29°36' W 090°40'3 5.3
2018-May-16 08:00N 29°35' W 090°37'5 0.2
2018-May-15 08:08N 29°34' W 090°31'1 8.4
2018-May-15 08:00N 29°34' W 090°33'4 7.6
2018-May-15 07:30N 29°35' W 090°37'3 5.5
2018-May-15 07:00N 29°36' W 090°40'2 4.4
2018-May-15 06:30N 29°37' W 090°42'2 4.6
2018-May-15 06:00N 29°35' W 090°43'2 4.8
2018-May-15 05:30N 29°32' W 090°42'3 5.1
2018-May-15 05:00N 29°30' W 090°43'  

Dump ship's entire track history